Time;durP1;ratioP1;P1;durP2;ratioP2;P2;SDS_P1;SDS_P2;PMS_P1;PMS_P2;Temp;Humidity;BMP_temperature;BMP_pressure;BME280_temperature;BME280_humidity;BME280_pressure;Samples;Min_cycle;Max_cycle;Signal;HPM_P1;HPM_P2
2023/12/21 00:03:01;;;;;;;;;;;17.10;60.30;;;;;;10368833;28;93475;-49
2023/12/21 00:08:03;;;;;;;;;;;17.20;60.30;;;;;;10365325;28;95781;-45
2023/12/21 00:13:05;;;;;;;;;;;17.10;60.00;;;;;;10341101;28;93600;-46
2023/12/21 00:18:07;;;;;;;;;;;17.10;60.20;;;;;;10367217;28;94450;-45
2023/12/21 00:23:09;;;;;;;;;;;17.10;60.70;;;;;;10367057;28;93514;-46
2023/12/21 00:28:11;;;;;;;;;;;17.00;60.90;;;;;;10366620;28;93850;-45
2023/12/21 00:33:12;;;;;;;;;;;17.00;60.70;;;;;;10367095;28;93755;-45
2023/12/21 00:38:15;;;;;;;;;;;17.00;60.50;;;;;;10368038;28;93608;-48
2023/12/21 00:43:16;;;;;;;;;;;17.00;60.30;;;;;;10357727;28;92473;-45
2023/12/21 00:48:19;;;;;;;;;;;17.00;60.10;;;;;;10368064;28;96028;-46
2023/12/21 00:53:20;;;;;;;;;;;17.00;59.80;;;;;;10366551;28;93901;-45
2023/12/21 00:58:22;;;;;;;;;;;17.00;59.80;;;;;;10364063;28;95943;-45
2023/12/21 01:03:24;;;;;;;;;;;16.90;59.50;;;;;;10366307;28;93423;-49
2023/12/21 01:08:26;;;;;;;;;;;16.90;59.50;;;;;;10364444;28;93386;-45
2023/12/21 01:13:28;;;;;;;;;;;16.90;59.70;;;;;;10365071;28;94017;-47
2023/12/21 01:18:30;;;;;;;;;;;16.90;60.10;;;;;;10348726;28;93498;-50
2023/12/21 01:23:32;;;;;;;;;;;16.90;60.50;;;;;;10366793;28;94383;-44
2023/12/21 01:28:34;;;;;;;;;;;16.90;60.30;;;;;;10367211;28;94925;-48
2023/12/21 01:33:36;;;;;;;;;;;16.80;60.10;;;;;;10365034;28;93090;-50
2023/12/21 01:38:38;;;;;;;;;;;16.80;59.90;;;;;;10366487;28;93813;-46
2023/12/21 01:43:39;;;;;;;;;;;16.80;59.60;;;;;;10358913;28;93446;-47
2023/12/21 01:48:42;;;;;;;;;;;16.80;59.50;;;;;;10359999;28;96760;-47
2023/12/21 01:53:44;;;;;;;;;;;16.80;59.30;;;;;;10362670;28;93613;-45
2023/12/21 01:58:49;;;;;;;;;;;16.80;59.20;;;;;;10364949;28;93383;-45
2023/12/21 02:03:51;;;;;;;;;;;16.80;59.00;;;;;;10712475;22;94494;-48
2023/12/21 02:08:53;;;;;;;;;;;16.80;59.40;;;;;;10256926;28;93395;-47
2023/12/21 02:13:54;;;;;;;;;;;16.70;59.90;;;;;;10245806;28;94184;-49
2023/12/21 02:18:56;;;;;;;;;;;16.70;60.00;;;;;;10262063;28;93396;-47
2023/12/21 02:24:00;;;;;;;;;;;16.70;59.80;;;;;;10282874;28;92888;-48
2023/12/21 02:29:03;;;;;;;;;;;16.80;59.70;;;;;;10289968;28;95696;-46
2023/12/21 02:34:08;;;;;;;;;;;16.80;59.50;;;;;;10244816;28;93512;-47
2023/12/21 02:39:10;;;;;;;;;;;16.80;59.30;;;;;;10273293;28;96707;-49
2023/12/21 02:44:12;;;;;;;;;;;16.80;59.10;;;;;;10272304;28;94570;-47
2023/12/21 02:49:14;;;;;;;;;;;16.80;58.80;;;;;;10277612;28;94470;-47
2023/12/21 02:54:16;;;;;;;;;;;16.80;58.60;;;;;;10265311;28;94338;-51
2023/12/21 02:59:18;;;;;;;;;;;16.80;58.60;;;;;;10261292;28;94511;-46
2023/12/21 03:04:19;;;;;;;;;;;16.80;58.90;;;;;;10272750;28;92807;-47
2023/12/21 03:09:21;;;;;;;;;;;16.80;59.40;;;;;;10272443;28;94539;-50
2023/12/21 03:14:23;;;;;;;;;;;16.70;59.50;;;;;;10271871;28;93766;-47
2023/12/21 03:19:25;;;;;;;;;;;16.70;59.30;;;;;;10273231;28;94435;-51
2023/12/21 03:24:27;;;;;;;;;;;16.70;59.00;;;;;;10272089;28;94619;-48
2023/12/21 03:29:28;;;;;;;;;;;16.70;58.90;;;;;;10268380;28;97149;-50
2023/12/21 03:34:30;;;;;;;;;;;16.70;58.70;;;;;;10285140;28;94499;-51
2023/12/21 03:39:33;;;;;;;;;;;16.70;58.50;;;;;;10275356;28;95436;-49
2023/12/21 03:44:34;;;;;;;;;;;16.70;58.40;;;;;;10271744;28;93759;-47
2023/12/21 03:49:36;;;;;;;;;;;16.70;58.20;;;;;;10274661;28;94396;-47
2023/12/21 03:54:38;;;;;;;;;;;16.70;58.20;;;;;;10267680;28;93451;-47
2023/12/21 03:59:41;;;;;;;;;;;16.70;58.70;;;;;;10287073;28;93421;-50
2023/12/21 04:04:42;;;;;;;;;;;16.60;59.20;;;;;;10262424;28;93723;-46
2023/12/21 04:09:44;;;;;;;;;;;16.60;59.40;;;;;;10272915;28;93312;-49
2023/12/21 04:14:47;;;;;;;;;;;16.60;59.60;;;;;;10257558;28;94412;-46
2023/12/21 04:19:48;;;;;;;;;;;16.60;59.80;;;;;;10266854;28;96224;-49
2023/12/21 04:24:50;;;;;;;;;;;16.50;60.80;;;;;;10275891;28;94390;-48
2023/12/21 04:29:52;;;;;;;;;;;16.50;60.10;;;;;;10266549;28;94476;-47
2023/12/21 04:34:54;;;;;;;;;;;16.50;60.20;;;;;;10282941;28;93373;-47
2023/12/21 04:39:56;;;;;;;;;;;16.50;60.40;;;;;;10271294;28;95066;-49
2023/12/21 04:44:57;;;;;;;;;;;16.50;60.50;;;;;;10275013;28;94908;-50
2023/12/21 04:49:59;;;;;;;;;;;16.50;60.80;;;;;;10295568;28;94439;-50
2023/12/21 04:55:01;;;;;;;;;;;16.40;60.80;;;;;;10284369;28;93507;-50
2023/12/21 05:00:05;;;;;;;;;;;16.40;60.90;;;;;;10285161;28;93485;-47
2023/12/21 05:05:07;;;;;;;;;;;16.40;61.10;;;;;;10281522;28;93842;-46
2023/12/21 05:10:09;;;;;;;;;;;16.40;61.20;;;;;;10282615;28;95811;-47
2023/12/21 05:15:11;;;;;;;;;;;16.40;61.30;;;;;;10245594;28;93983;-50
2023/12/21 05:20:13;;;;;;;;;;;16.40;61.30;;;;;;10265321;28;94469;-51
2023/12/21 05:25:16;;;;;;;;;;;16.40;61.40;;;;;;10270150;28;93887;-50
2023/12/21 05:30:18;;;;;;;;;;;16.30;61.40;;;;;;10269944;28;94813;-50
2023/12/21 05:35:20;;;;;;;;;;;16.40;61.60;;;;;;10265606;28;95226;-51
2023/12/21 05:40:22;;;;;;;;;;;16.30;61.60;;;;;;10262222;28;94679;-50
2023/12/21 05:45:24;;;;;;;;;;;16.40;61.70;;;;;;10266421;28;92530;-47
2023/12/21 05:50:26;;;;;;;;;;;16.50;61.70;;;;;;10280894;28;94231;-46
2023/12/21 05:55:29;;;;;;;;;;;16.70;61.50;;;;;;10269048;28;94591;-46
2023/12/21 06:00:31;;;;;;;;;;;16.90;61.20;;;;;;10250047;28;96471;-47
2023/12/21 06:05:33;;;;;;;;;;;17.00;60.90;;;;;;10251757;28;94579;-51
2023/12/21 06:10:35;;;;;;;;;;;17.10;60.60;;;;;;10254271;28;94739;-46
2023/12/21 06:15:36;;;;;;;;;;;17.10;60.60;;;;;;10280503;28;94786;-47
2023/12/21 06:20:38;;;;;;;;;;;17.10;60.60;;;;;;10285457;28;93448;-50
2023/12/21 06:25:40;;;;;;;;;;;17.10;60.60;;;;;;10272608;28;94732;-44
2023/12/21 06:30:42;;;;;;;;;;;17.10;61.40;;;;;;10281214;28;94551;-62
2023/12/21 06:35:44;;;;;;;;;;;17.20;61.70;;;;;;10267685;28;94138;-47
2023/12/21 06:40:46;;;;;;;;;;;17.10;64.60;;;;;;10261342;28;94857;-46
2023/12/21 06:45:49;;;;;;;;;;;17.10;64.20;;;;;;10265521;28;93528;-46
2023/12/21 06:50:50;;;;;;;;;;;17.10;64.60;;;;;;10266867;28;97174;-48
2023/12/21 06:55:52;;;;;;;;;;;17.10;63.70;;;;;;10284035;28;94099;-49
2023/12/21 07:01:14;;;;;;;;;;;17.10;63.90;;;;;;10285783;28;94459;-46
2023/12/21 07:06:16;;;;;;;;;;;17.10;64.10;;;;;;10273522;28;94435;-49
2023/12/21 07:11:18;;;;;;;;;;;17.10;64.40;;;;;;10279599;28;94435;-51
2023/12/21 07:16:19;;;;;;;;;;;17.10;64.40;;;;;;10280989;28;94573;-47
2023/12/21 07:21:21;;;;;;;;;;;17.10;64.40;;;;;;10277074;28;94567;-48
2023/12/21 07:26:24;;;;;;;;;;;17.10;64.50;;;;;;10264426;28;93720;-45
2023/12/21 07:31:26;;;;;;;;;;;17.00;64.50;;;;;;10277102;28;92938;-49
2023/12/21 07:36:27;;;;;;;;;;;17.00;64.40;;;;;;10272522;28;93627;-50
2023/12/21 07:41:29;;;;;;;;;;;17.00;64.60;;;;;;10246040;28;96848;-50
2023/12/21 07:46:31;;;;;;;;;;;16.90;64.50;;;;;;10286137;28;93791;-50
2023/12/21 07:51:33;;;;;;;;;;;16.90;64.50;;;;;;10273339;28;93446;-45
2023/12/21 07:56:35;;;;;;;;;;;16.90;64.60;;;;;;10281633;28;93454;-45
2023/12/21 08:01:37;;;;;;;;;;;16.80;64.60;;;;;;10274760;28;93346;-46
2023/12/21 08:06:39;;;;;;;;;;;16.80;64.60;;;;;;10264279;28;95370;-46
2023/12/21 08:11:43;;;;;;;;;;;16.70;64.40;;;;;;10284747;28;114052;-45
2023/12/21 08:16:45;;;;;;;;;;;16.70;64.40;;;;;;10269172;28;93380;-49
2023/12/21 08:21:48;;;;;;;;;;;16.70;64.50;;;;;;10272884;28;93396;-47
2023/12/21 08:26:49;;;;;;;;;;;16.70;65.50;;;;;;10280938;28;92780;-46
2023/12/21 08:31:51;;;;;;;;;;;16.60;64.50;;;;;;10274296;28;95898;-47
2023/12/21 08:36:53;;;;;;;;;;;16.60;64.40;;;;;;10272080;28;94056;-45
2023/12/21 08:41:55;;;;;;;;;;;16.60;64.50;;;;;;10263714;28;93741;-45
2023/12/21 08:46:57;;;;;;;;;;;16.50;64.40;;;;;;10276542;28;94362;-47
2023/12/21 08:51:59;;;;;;;;;;;16.50;64.50;;;;;;10262606;28;94560;-48
2023/12/21 08:57:00;;;;;;;;;;;16.50;64.50;;;;;;10282004;28;93490;-47
2023/12/21 09:02:02;;;;;;;;;;;16.50;64.50;;;;;;10269483;28;94510;-48
2023/12/21 09:07:04;;;;;;;;;;;16.50;64.50;;;;;;10270402;28;92801;-47
2023/12/21 09:12:06;;;;;;;;;;;16.50;64.50;;;;;;10281580;28;94605;-45
2023/12/21 09:17:08;;;;;;;;;;;16.40;64.50;;;;;;10250835;28;93899;-46
2023/12/21 09:22:10;;;;;;;;;;;16.40;64.50;;;;;;10284880;28;96657;-52
2023/12/21 09:27:14;;;;;;;;;;;16.40;64.60;;;;;;10274064;28;94812;-50
2023/12/21 09:32:16;;;;;;;;;;;16.40;64.70;;;;;;10284137;28;94662;-48
2023/12/21 09:37:17;;;;;;;;;;;16.30;64.60;;;;;;10275302;28;93374;-48
2023/12/21 09:42:20;;;;;;;;;;;16.30;64.60;;;;;;10279868;28;94648;-49
2023/12/21 09:47:23;;;;;;;;;;;16.30;64.70;;;;;;10277494;28;96886;-46
2023/12/21 09:52:26;;;;;;;;;;;16.30;64.80;;;;;;10261593;28;94350;-47
2023/12/21 09:57:28;;;;;;;;;;;16.30;64.80;;;;;;10262578;28;93909;-47
2023/12/21 10:02:31;;;;;;;;;;;16.30;64.80;;;;;;10285963;28;93319;-45
2023/12/21 10:07:33;;;;;;;;;;;16.20;64.70;;;;;;10276850;28;94652;-45
2023/12/21 10:12:40;;;;;;;;;;;16.30;64.80;;;;;;10270790;28;96326;-45
2023/12/21 10:17:42;;;;;;;;;;;16.30;64.80;;;;;;10271618;28;93413;-45
2023/12/21 10:22:44;;;;;;;;;;;16.30;64.80;;;;;;10263296;28;93531;-52
2023/12/21 10:27:54;;;;;;;;;;;16.30;64.80;;;;;;10241730;28;93088;-48
2023/12/21 10:32:56;;;;;;;;;;;16.30;64.90;;;;;;10255672;28;93345;-47
2023/12/21 10:37:59;;;;;;;;;;;16.30;64.80;;;;;;10286663;28;93685;-46
2023/12/21 10:43:01;;;;;;;;;;;16.30;64.80;;;;;;10259278;28;94758;-46
2023/12/21 10:48:06;;;;;;;;;;;16.30;64.90;;;;;;10270818;28;92176;-47
2023/12/21 10:53:09;;;;;;;;;;;16.30;64.90;;;;;;10238255;28;94391;-48
2023/12/21 10:58:12;;;;;;;;;;;16.30;64.80;;;;;;10262836;28;93946;-46
2023/12/21 11:03:16;;;;;;;;;;;16.30;64.80;;;;;;10269072;28;96680;-45
2023/12/21 11:08:19;;;;;;;;;;;16.30;64.80;;;;;;10271554;28;93512;-47
2023/12/21 11:13:21;;;;;;;;;;;16.30;64.90;;;;;;10258490;28;93401;-47
2023/12/21 11:18:23;;;;;;;;;;;16.30;64.90;;;;;;10260250;28;93413;-46
2023/12/21 11:23:26;;;;;;;;;;;16.30;64.80;;;;;;10269880;28;94727;-46
2023/12/21 11:28:31;;;;;;;;;;;16.20;64.80;;;;;;10277038;28;93363;-47
2023/12/21 11:33:33;;;;;;;;;;;16.20;64.80;;;;;;10281256;28;95162;-47
2023/12/21 11:38:45;;;;;;;;;;;16.20;64.80;;;;;;10283046;28;92950;-46
2023/12/21 11:43:56;;;;;;;;;;;16.20;64.80;;;;;;10270283;28;93557;-49
2023/12/21 11:48:58;;;;;;;;;;;16.20;64.90;;;;;;10266173;28;93387;-50
2023/12/21 11:54:06;;;;;;;;;;;16.20;64.90;;;;;;10267287;28;97054;-47
2023/12/21 11:59:09;;;;;;;;;;;16.20;64.90;;;;;;10255254;28;93561;-48
2023/12/21 12:04:13;;;;;;;;;;;16.20;64.90;;;;;;10276446;28;93540;-46
2023/12/21 12:09:16;;;;;;;;;;;16.20;65.00;;;;;;10264159;28;94453;-47
2023/12/21 12:14:20;;;;;;;;;;;16.20;65.00;;;;;;10277325;28;94697;-47
2023/12/21 12:19:24;;;;;;;;;;;16.10;65.00;;;;;;10267745;28;93497;-50
2023/12/21 12:24:26;;;;;;;;;;;16.10;65.10;;;;;;10286173;28;94683;-46
2023/12/21 12:29:28;;;;;;;;;;;16.20;65.10;;;;;;10259905;28;92741;-49
2023/12/21 12:34:30;;;;;;;;;;;16.10;65.10;;;;;;10265142;28;92945;-45
2023/12/21 12:39:32;;;;;;;;;;;16.10;65.20;;;;;;10269636;28;93622;-46
2023/12/21 12:44:34;;;;;;;;;;;16.10;65.20;;;;;;10263400;28;96678;-48
2023/12/21 12:49:36;;;;;;;;;;;16.10;65.20;;;;;;10272949;28;94428;-48
2023/12/21 12:54:40;;;;;;;;;;;16.10;65.30;;;;;;10259706;28;94838;-45
2023/12/21 12:59:42;;;;;;;;;;;16.10;65.20;;;;;;10272770;28;94482;-46
2023/12/21 13:04:44;;;;;;;;;;;16.10;65.20;;;;;;10261895;28;95992;-51
2023/12/21 13:09:47;;;;;;;;;;;16.10;65.40;;;;;;10265113;28;94545;-50
2023/12/21 13:14:49;;;;;;;;;;;16.10;65.30;;;;;;10261037;28;94569;-45
2023/12/21 13:19:51;;;;;;;;;;;16.00;65.20;;;;;;10270055;28;92255;-46
2023/12/21 13:24:53;;;;;;;;;;;16.00;65.20;;;;;;10271342;28;94455;-45
2023/12/21 13:29:54;;;;;;;;;;;16.00;65.10;;;;;;10272158;28;94432;-45
2023/12/21 13:34:56;;;;;;;;;;;16.00;65.10;;;;;;10277202;28;95899;-45
2023/12/21 13:39:59;;;;;;;;;;;16.00;65.10;;;;;;10260614;28;93680;-45
2023/12/21 13:45:04;;;;;;;;;;;16.00;65.10;;;;;;10271454;28;93935;-45
2023/12/21 13:50:06;;;;;;;;;;;16.00;65.10;;;;;;10267080;28;94454;-50
2023/12/21 13:55:08;;;;;;;;;;;16.00;65.10;;;;;;10278472;28;93576;-50
2023/12/21 14:00:10;;;;;;;;;;;16.00;65.10;;;;;;10262106;28;94624;-46
2023/12/21 14:05:12;;;;;;;;;;;16.00;65.10;;;;;;10270859;28;94077;-48
2023/12/21 14:10:13;;;;;;;;;;;16.00;65.00;;;;;;10275129;28;93068;-45
2023/12/21 14:15:15;;;;;;;;;;;16.00;65.00;;;;;;10267592;28;93359;-47
2023/12/21 14:20:22;;;;;;;;;;;16.00;65.10;;;;;;10274851;28;94591;-49
2023/12/21 14:25:24;;;;;;;;;;;16.00;65.00;;;;;;10287255;28;96665;-48
2023/12/21 14:30:26;;;;;;;;;;;16.00;65.00;;;;;;10285161;28;93867;-51
2023/12/21 14:35:28;;;;;;;;;;;16.00;65.00;;;;;;10277960;28;93532;-45
2023/12/21 14:40:29;;;;;;;;;;;16.00;64.90;;;;;;10282041;28;94436;-45
2023/12/21 14:45:31;;;;;;;;;;;16.00;64.80;;;;;;10286324;28;94808;-46
2023/12/21 14:50:33;;;;;;;;;;;16.10;64.90;;;;;;10272396;28;93752;-46
2023/12/21 14:55:35;;;;;;;;;;;16.10;64.80;;;;;;10271797;28;93621;-48
2023/12/21 15:00:36;;;;;;;;;;;16.10;65.00;;;;;;10273443;28;93285;-47
2023/12/21 15:05:38;;;;;;;;;;;16.10;64.90;;;;;;10264380;28;94307;-47
2023/12/21 15:10:40;;;;;;;;;;;16.10;65.00;;;;;;10270283;28;94679;-46
2023/12/21 15:15:42;;;;;;;;;;;16.10;64.90;;;;;;10258825;28;95469;-45
2023/12/21 15:20:44;;;;;;;;;;;16.10;64.90;;;;;;10266680;28;94201;-48
2023/12/21 15:25:46;;;;;;;;;;;16.10;64.90;;;;;;10258643;28;94069;-47
2023/12/21 15:30:47;;;;;;;;;;;16.20;64.90;;;;;;10277433;28;94456;-48
2023/12/21 15:35:49;;;;;;;;;;;16.20;64.90;;;;;;10285610;28;94368;-50
2023/12/21 15:40:51;;;;;;;;;;;16.10;64.80;;;;;;10267109;28;94482;-46
2023/12/21 15:45:53;;;;;;;;;;;16.10;64.70;;;;;;10269211;28;93456;-46
2023/12/21 15:50:55;;;;;;;;;;;16.10;64.60;;;;;;10287175;28;92853;-47
2023/12/21 15:55:57;;;;;;;;;;;16.10;64.60;;;;;;10287004;28;94628;-49
2023/12/21 16:00:59;;;;;;;;;;;16.10;64.60;;;;;;10273330;28;94310;-45
2023/12/21 16:06:01;;;;;;;;;;;16.10;64.50;;;;;;10276275;28;96022;-48
2023/12/21 16:11:03;;;;;;;;;;;16.10;64.50;;;;;;10256731;28;93619;-45
2023/12/21 16:16:05;;;;;;;;;;;16.10;64.50;;;;;;10277961;28;94389;-45
2023/12/21 16:21:06;;;;;;;;;;;16.20;64.50;;;;;;10276701;28;93826;-46
2023/12/21 16:26:08;;;;;;;;;;;16.40;64.20;;;;;;10254442;28;94421;-46
2023/12/21 16:31:10;;;;;;;;;;;16.60;63.70;;;;;;10279367;28;92995;-45
2023/12/21 16:36:12;;;;;;;;;;;16.90;63.30;;;;;;10249514;28;93350;-50
2023/12/21 16:41:14;;;;;;;;;;;17.10;62.70;;;;;;10274032;28;93707;-47
2023/12/21 16:46:17;;;;;;;;;;;17.40;62.20;;;;;;10260096;28;94538;-48
2023/12/21 16:51:19;;;;;;;;;;;17.60;62.20;;;;;;10270554;28;94306;-46
2023/12/21 16:56:21;;;;;;;;;;;17.70;62.30;;;;;;10263441;28;95860;-44
2023/12/21 17:01:23;;;;;;;;;;;17.90;63.20;;;;;;10273164;28;93145;-46
2023/12/21 17:06:25;;;;;;;;;;;17.90;69.30;;;;;;10267673;28;94452;-48
2023/12/21 17:11:27;;;;;;;;;;;18.10;72.70;;;;;;10273872;28;94641;-46
2023/12/21 17:16:29;;;;;;;;;;;18.30;73.10;;;;;;10278822;28;93588;-46
2023/12/21 17:21:31;;;;;;;;;;;18.40;71.90;;;;;;10262723;28;93386;-51
2023/12/21 17:26:33;;;;;;;;;;;18.40;70.80;;;;;;10259896;28;93689;-47
2023/12/21 17:31:34;;;;;;;;;;;18.40;70.10;;;;;;10276298;28;92738;-50
2023/12/21 17:36:36;;;;;;;;;;;18.30;69.60;;;;;;10278257;28;94671;-50
2023/12/21 17:41:38;;;;;;;;;;;18.30;69.20;;;;;;10268769;28;94188;-51
2023/12/21 17:46:39;;;;;;;;;;;18.30;69.00;;;;;;10278960;28;98270;-46
2023/12/21 17:51:41;;;;;;;;;;;18.20;68.70;;;;;;10269123;28;96254;-49
2023/12/21 17:56:43;;;;;;;;;;;18.20;68.20;;;;;;10277040;28;94699;-51
2023/12/21 18:01:45;;;;;;;;;;;18.20;68.10;;;;;;10286416;28;95187;-49
2023/12/21 18:06:49;;;;;;;;;;;18.40;67.70;;;;;;10276362;28;93566;-47
2023/12/21 18:11:51;;;;;;;;;;;18.50;67.20;;;;;;10280038;28;94526;-51
2023/12/21 18:16:53;;;;;;;;;;;18.60;66.80;;;;;;10285372;28;93914;-50
2023/12/21 18:21:55;;;;;;;;;;;18.60;66.60;;;;;;10265627;28;91898;-52
2023/12/21 18:26:56;;;;;;;;;;;18.60;66.60;;;;;;10283130;28;94320;-46
2023/12/21 18:31:58;;;;;;;;;;;18.60;66.30;;;;;;10271864;28;94920;-48
2023/12/21 18:37:00;;;;;;;;;;;18.70;66.10;;;;;;10260603;28;96861;-44
2023/12/21 18:42:02;;;;;;;;;;;18.70;65.60;;;;;;10281509;28;94079;-48
2023/12/21 18:47:04;;;;;;;;;;;18.60;65.50;;;;;;10270817;28;94008;-47
2023/12/21 18:52:06;;;;;;;;;;;18.60;66.20;;;;;;10279385;28;93887;-47
2023/12/21 18:57:07;;;;;;;;;;;18.60;65.00;;;;;;10271026;28;93447;-45
2023/12/21 19:02:10;;;;;;;;;;;18.70;63.60;;;;;;10272092;28;94570;-44
2023/12/21 19:07:13;;;;;;;;;;;18.90;64.00;;;;;;10284227;28;93877;-46
2023/12/21 19:12:15;;;;;;;;;;;18.90;63.40;;;;;;10262754;28;94209;-49
2023/12/21 19:17:16;;;;;;;;;;;18.90;63.20;;;;;;10254817;28;93635;-44
2023/12/21 19:22:18;;;;;;;;;;;18.90;63.10;;;;;;10278917;28;92982;-48
2023/12/21 19:27:20;;;;;;;;;;;18.90;63.00;;;;;;10273543;28;96834;-45
2023/12/21 19:32:22;;;;;;;;;;;19.00;62.90;;;;;;10275436;28;95156;-50
2023/12/21 19:37:25;;;;;;;;;;;19.00;62.60;;;;;;10278839;28;94446;-45
2023/12/21 19:42:27;;;;;;;;;;;19.00;62.40;;;;;;10285381;28;93405;-47
2023/12/21 19:47:29;;;;;;;;;;;18.90;62.90;;;;;;10274266;28;93776;-47
2023/12/21 19:52:30;;;;;;;;;;;18.90;63.00;;;;;;10282641;28;94643;-50
2023/12/21 19:57:33;;;;;;;;;;;18.90;62.70;;;;;;10266539;28;94064;-48
2023/12/21 20:02:35;;;;;;;;;;;18.90;62.60;;;;;;10280924;28;92690;-48
2023/12/21 20:07:36;;;;;;;;;;;18.80;62.60;;;;;;10284426;28;94772;-47
2023/12/21 20:12:38;;;;;;;;;;;18.70;62.90;;;;;;10276437;28;94374;-47
2023/12/21 20:17:43;;;;;;;;;;;18.70;63.60;;;;;;10268888;28;95830;-45
2023/12/21 20:22:45;;;;;;;;;;;18.70;63.00;;;;;;10278070;28;94689;-45
2023/12/21 20:27:48;;;;;;;;;;;18.70;63.00;;;;;;10258881;28;94416;-50
2023/12/21 20:32:51;;;;;;;;;;;18.60;63.00;;;;;;10245119;28;93629;-44
2023/12/21 20:37:53;;;;;;;;;;;18.60;63.10;;;;;;10271479;28;92891;-45
2023/12/21 20:42:57;;;;;;;;;;;18.60;62.90;;;;;;10283453;28;94230;-46
2023/12/21 20:47:59;;;;;;;;;;;18.70;62.80;;;;;;10278574;28;94142;-45
2023/12/21 20:53:01;;;;;;;;;;;18.60;62.60;;;;;;10261047;28;93840;-49
2023/12/21 20:58:03;;;;;;;;;;;18.50;62.60;;;;;;10280553;28;94517;-48
2023/12/21 21:03:06;;;;;;;;;;;18.50;62.80;;;;;;10281586;28;94406;-47
2023/12/21 21:08:10;;;;;;;;;;;18.40;62.80;;;;;;10273225;28;98934;-49
2023/12/21 21:13:11;;;;;;;;;;;18.30;62.90;;;;;;10275673;28;94534;-44
2023/12/21 21:18:13;;;;;;;;;;;18.20;63.00;;;;;;10278014;28;94687;-47
2023/12/21 21:23:15;;;;;;;;;;;18.20;63.20;;;;;;10279502;28;93480;-49
2023/12/21 21:28:17;;;;;;;;;;;18.10;63.40;;;;;;10277163;28;93538;-48
2023/12/21 21:33:19;;;;;;;;;;;18.00;63.50;;;;;;10264479;28;94447;-47
2023/12/21 21:38:21;;;;;;;;;;;17.90;63.60;;;;;;10278717;28;94169;-49
2023/12/21 21:43:26;;;;;;;;;;;17.80;63.60;;;;;;10267402;28;92998;-48
2023/12/21 21:48:28;;;;;;;;;;;17.80;63.40;;;;;;10290935;28;93517;-45
2023/12/21 21:53:31;;;;;;;;;;;17.70;63.00;;;;;;10259740;28;92641;-45
2023/12/21 21:58:34;;;;;;;;;;;17.60;62.70;;;;;;10282741;28;96421;-48
2023/12/21 22:03:37;;;;;;;;;;;17.60;62.80;;;;;;10287851;28;93972;-48
2023/12/21 22:08:39;;;;;;;;;;;17.50;62.70;;;;;;10283335;28;96513;-47
2023/12/21 22:13:41;;;;;;;;;;;17.50;62.70;;;;;;10249910;28;93981;-47
2023/12/21 22:18:43;;;;;;;;;;;17.40;62.80;;;;;;10260917;28;94604;-49
2023/12/21 22:23:45;;;;;;;;;;;17.40;62.80;;;;;;10266424;28;94585;-50
2023/12/21 22:28:47;;;;;;;;;;;17.30;62.80;;;;;;10277515;28;94441;-45
2023/12/21 22:33:49;;;;;;;;;;;17.30;62.80;;;;;;10285947;28;93564;-45
2023/12/21 22:38:51;;;;;;;;;;;17.30;62.90;;;;;;10293740;28;94439;-47
2023/12/21 22:43:53;;;;;;;;;;;17.20;62.80;;;;;;10284957;28;93440;-49
2023/12/21 22:48:55;;;;;;;;;;;17.20;62.90;;;;;;10281783;28;95981;-46
2023/12/21 22:53:57;;;;;;;;;;;17.10;62.80;;;;;;10279445;28;93332;-46
2023/12/21 22:58:59;;;;;;;;;;;17.10;62.80;;;;;;10266449;28;93544;-47
2023/12/21 23:04:01;;;;;;;;;;;17.10;62.90;;;;;;10289861;28;93461;-50
2023/12/21 23:09:02;;;;;;;;;;;17.00;62.90;;;;;;10274409;28;93573;-49
2023/12/21 23:14:04;;;;;;;;;;;17.00;62.90;;;;;;10272703;28;93612;-47
2023/12/21 23:19:06;;;;;;;;;;;16.90;62.90;;;;;;10265786;28;94534;-49
2023/12/21 23:24:08;;;;;;;;;;;16.90;62.90;;;;;;10258134;28;93558;-49
2023/12/21 23:29:10;;;;;;;;;;;16.90;62.90;;;;;;10255141;28;94475;-47
2023/12/21 23:34:12;;;;;;;;;;;16.80;62.90;;;;;;10286289;28;93818;-48
2023/12/21 23:39:14;;;;;;;;;;;16.80;62.90;;;;;;10266879;28;96575;-47
2023/12/21 23:44:16;;;;;;;;;;;16.70;62.90;;;;;;10281303;28;93276;-48
2023/12/21 23:49:18;;;;;;;;;;;16.70;63.00;;;;;;10262018;28;93521;-46
2023/12/21 23:54:20;;;;;;;;;;;16.70;62.90;;;;;;10272085;28;93664;-46
2023/12/21 23:59:22;;;;;;;;;;;16.70;62.90;;;;;;10266680;28;94089;-49
